createdAt,value
2023-01-19T00:00:54.271Z,0.20
2023-01-19T00:03:21.821Z,0.30
2023-01-19T00:05:49.354Z,0.30
2023-01-19T00:08:16.887Z,0.30
2023-01-19T00:10:46.809Z,0.30
2023-01-19T00:13:14.962Z,0.40
2023-01-19T00:15:42.072Z,0.50
2023-01-19T00:18:10.879Z,0.50
2023-01-19T00:20:39.085Z,0.40
2023-01-19T00:23:08.181Z,0.50
2023-01-19T00:25:42.427Z,0.40
2023-01-19T00:28:14.945Z,0.50
2023-01-19T00:30:42.778Z,0.50
2023-01-19T00:33:11.223Z,0.50
2023-01-19T00:35:38.651Z,0.60
2023-01-19T00:38:05.795Z,0.50
2023-01-19T00:40:32.954Z,0.50
2023-01-19T00:43:00.916Z,0.50
2023-01-19T00:45:28.362Z,0.50
2023-01-19T00:47:57.333Z,0.50
2023-01-19T00:50:26.338Z,0.50
2023-01-19T00:52:55.379Z,0.50
2023-01-19T00:55:23.358Z,0.50
2023-01-19T00:57:50.442Z,0.50
2023-01-19T01:00:19.884Z,0.60
2023-01-19T01:02:48.115Z,0.50
2023-01-19T01:05:15.887Z,0.50
2023-01-19T01:07:44.723Z,0.50
2023-01-19T01:10:17.485Z,0.40
2023-01-19T01:12:53.626Z,0.30
2023-01-19T01:15:26.493Z,0.10
2023-01-19T01:17:53.905Z,0.20
2023-01-19T01:20:24.428Z,0.30
2023-01-19T01:22:53.508Z,0.20
2023-01-19T01:25:25.647Z,0.20
2023-01-19T01:27:53.772Z,0.20
2023-01-19T01:30:21.387Z,0.20
2023-01-19T01:32:48.707Z,0.00
2023-01-19T01:35:16.520Z,0.00
2023-01-19T01:37:44.360Z,0.00
2023-01-19T01:40:14.303Z,0.00
2023-01-19T01:42:42.680Z,-0.10
2023-01-19T01:45:38.501Z,-0.10
2023-01-19T01:48:28.632Z,-0.10
2023-01-19T01:51:19.570Z,-0.10
2023-01-19T01:53:58.088Z,-0.20
2023-01-19T01:56:34.273Z,-0.20
2023-01-19T01:59:05.678Z,-0.40
2023-01-19T02:01:51.479Z,-0.50
2023-01-19T02:04:19.205Z,-0.60
2023-01-19T02:07:06.373Z,-0.60
2023-01-19T02:09:55.265Z,-0.60
2023-01-19T02:12:42.292Z,-0.70
2023-01-19T02:15:20.416Z,-0.60
2023-01-19T02:17:48.077Z,-0.70
2023-01-19T02:20:15.985Z,-0.70
2023-01-19T02:22:50.054Z,-0.70
2023-01-19T02:25:19.335Z,-0.80
2023-01-19T02:27:47.146Z,-0.70
2023-01-19T02:30:16.765Z,-0.70
2023-01-19T02:32:44.246Z,-0.70
2023-01-19T02:35:12.623Z,-0.90
2023-01-19T02:37:42.213Z,-0.80
2023-01-19T02:40:13.047Z,-0.90
2023-01-19T02:42:45.701Z,-1.00
2023-01-19T02:45:15.399Z,-1.10
2023-01-19T02:47:48.034Z,-1.10
2023-01-19T02:50:52.356Z,-1.20
2023-01-19T02:54:04.314Z,-1.30
2023-01-19T02:56:42.631Z,-1.30
2023-01-19T02:59:50.151Z,-1.10
2023-01-19T03:02:44.256Z,-1.10
2023-01-19T03:05:48.788Z,-1.10
2023-01-19T03:08:59.089Z,-1.10
2023-01-19T03:11:33.838Z,-1.10
2023-01-19T03:14:12.220Z,-1.20
2023-01-19T03:16:58.320Z,-1.30
2023-01-19T03:19:34.364Z,-1.10
2023-01-19T03:22:23.714Z,-1.10
2023-01-19T03:24:53.746Z,-1.00
2023-01-19T03:27:41.345Z,-1.00
2023-01-19T03:30:15.910Z,-1.10
2023-01-19T03:32:50.741Z,-0.90
2023-01-19T03:35:20.724Z,-0.90
2023-01-19T03:37:53.108Z,-0.90
2023-01-19T03:40:21.400Z,-1.00
2023-01-19T03:42:50.329Z,-1.10
2023-01-19T03:45:18.391Z,-1.10
2023-01-19T03:47:45.793Z,-1.10
2023-01-19T03:50:20.829Z,-1.10
2023-01-19T03:53:01.511Z,-1.00
2023-01-19T03:55:29.089Z,-1.00
2023-01-19T03:57:56.149Z,-1.10
2023-01-19T04:00:23.583Z,-1.10
2023-01-19T04:02:50.695Z,-1.00
2023-01-19T04:05:19.229Z,-1.00
2023-01-19T04:07:49.588Z,-1.10
2023-01-19T04:10:19.900Z,-1.20
2023-01-19T04:12:47.032Z,-1.20
2023-01-19T04:15:14.704Z,-1.20
2023-01-19T04:17:42.004Z,-1.10
2023-01-19T04:20:09.938Z,-1.10
2023-01-19T04:22:38.920Z,-1.00
2023-01-19T04:25:07.415Z,-1.00
2023-01-19T04:27:34.688Z,-1.00
2023-01-19T04:30:02.208Z,-1.00
2023-01-19T04:32:29.634Z,-0.90
2023-01-19T04:34:56.657Z,-1.00
2023-01-19T04:37:23.751Z,-0.90
2023-01-19T04:39:50.956Z,-1.00
2023-01-19T04:42:18.100Z,-1.00
2023-01-19T04:44:45.166Z,-0.90
2023-01-19T04:47:12.311Z,-1.10
2023-01-19T04:49:39.356Z,-1.10
2023-01-19T04:52:06.860Z,-1.20
2023-01-19T04:54:34.007Z,-1.20
2023-01-19T04:57:01.179Z,-1.20
2023-01-19T04:59:28.247Z,-1.10
2023-01-19T05:01:56.724Z,-1.00
2023-01-19T05:04:25.704Z,-0.90
2023-01-19T05:06:54.279Z,-1.00
2023-01-19T05:09:21.748Z,-1.00
2023-01-19T05:11:48.813Z,-1.00
2023-01-19T05:14:15.874Z,-1.00
2023-01-19T05:16:43.008Z,-1.00
2023-01-19T05:19:10.087Z,-1.00
2023-01-19T05:21:37.138Z,-1.10
2023-01-19T05:24:04.515Z,-1.10
2023-01-19T05:26:31.581Z,-1.10
2023-01-19T05:28:58.600Z,-1.10
2023-01-19T05:31:25.856Z,-1.20
2023-01-19T05:33:52.987Z,-1.20
2023-01-19T05:36:20.039Z,-1.30
2023-01-19T05:38:47.095Z,-1.40
2023-01-19T05:41:14.352Z,-1.40
2023-01-19T05:43:41.397Z,-1.50
2023-01-19T05:46:08.557Z,-1.50
2023-01-19T05:48:35.610Z,-1.50
2023-01-19T05:51:02.732Z,-1.50
2023-01-19T05:53:29.775Z,-1.60
2023-01-19T05:56:01.201Z,-1.50
2023-01-19T05:58:29.032Z,-1.50
2023-01-19T06:00:56.224Z,-1.60
2023-01-19T06:03:23.534Z,-1.60
2023-01-19T06:05:50.619Z,-1.60
2023-01-19T06:08:17.719Z,-1.70
2023-01-19T06:10:44.814Z,-1.70
2023-01-19T06:13:11.895Z,-1.70
2023-01-19T06:15:38.970Z,-1.70
2023-01-19T06:18:06.234Z,-1.70
2023-01-19T06:20:33.301Z,-1.70
2023-01-19T06:23:00.847Z,-1.80
2023-01-19T06:25:28.167Z,-1.70
2023-01-19T06:27:55.300Z,-1.80
2023-01-19T06:30:22.628Z,-1.90
2023-01-19T06:32:49.715Z,-1.90
2023-01-19T06:35:16.851Z,-1.90
2023-01-19T06:37:43.944Z,-1.90
2023-01-19T06:40:13.737Z,-1.90
2023-01-19T06:42:41.719Z,-1.80
2023-01-19T06:45:10.289Z,-1.80
2023-01-19T06:47:37.361Z,-1.90
2023-01-19T06:50:04.794Z,-1.90
2023-01-19T06:52:31.938Z,-1.90
2023-01-19T06:54:58.994Z,-1.90
2023-01-19T06:57:26.197Z,-1.90
2023-01-19T06:59:53.313Z,-1.80
2023-01-19T07:02:27.640Z,-1.90
2023-01-19T07:04:57.054Z,-1.90
2023-01-19T07:07:24.220Z,-2.00
2023-01-19T07:09:53.958Z,-2.00
2023-01-19T07:12:22.000Z,-2.00
2023-01-19T07:14:49.650Z,-2.00
2023-01-19T07:17:16.943Z,-2.00
2023-01-19T07:19:44.243Z,-1.80
2023-01-19T07:22:11.334Z,-1.70
2023-01-19T07:24:38.478Z,-1.80
2023-01-19T07:27:05.811Z,-1.80
2023-01-19T07:29:32.914Z,-1.80
2023-01-19T07:32:00.048Z,-1.70
2023-01-19T07:34:27.202Z,-1.70
2023-01-19T07:36:56.092Z,-1.70
2023-01-19T07:39:23.173Z,-1.70
2023-01-19T07:41:50.341Z,-1.70
2023-01-19T07:44:17.624Z,-1.70
2023-01-19T07:46:44.875Z,-1.70
2023-01-19T07:49:12.834Z,-1.70
2023-01-19T07:51:39.935Z,-1.70
2023-01-19T07:54:08.597Z,-1.60
2023-01-19T07:56:35.872Z,-1.70
2023-01-19T07:59:03.051Z,-1.60
2023-01-19T08:01:31.611Z,-1.50
2023-01-19T08:03:59.085Z,-1.50
2023-01-19T08:06:45.813Z,-1.60
2023-01-19T08:09:13.296Z,-1.60
2023-01-19T08:11:40.544Z,-1.60
2023-01-19T08:14:08.178Z,-1.60
2023-01-19T08:16:36.002Z,-1.50
2023-01-19T08:19:03.913Z,-1.50
2023-01-19T08:21:31.321Z,-1.50
2023-01-19T08:23:58.706Z,-1.40
2023-01-19T08:26:31.299Z,-1.40
2023-01-19T08:29:00.802Z,-1.50
2023-01-19T08:31:29.664Z,-1.50
2023-01-19T08:33:57.187Z,-1.40
2023-01-19T08:36:25.266Z,-1.40
2023-01-19T08:38:52.498Z,-1.50
2023-01-19T08:41:19.608Z,-1.60
2023-01-19T08:43:46.883Z,-1.50
2023-01-19T08:46:17.753Z,-1.30
2023-01-19T08:48:50.801Z,-1.30
2023-01-19T08:51:18.502Z,-1.40
2023-01-19T08:53:45.616Z,-1.40
2023-01-19T08:56:13.975Z,-1.10
2023-01-19T08:58:42.266Z,-0.90
2023-01-19T09:01:10.726Z,-0.70
2023-01-19T09:03:37.943Z,-0.60
2023-01-19T09:06:09.179Z,-0.40
2023-01-19T09:08:36.403Z,-0.20
2023-01-19T09:11:03.729Z,0.00
2023-01-19T09:13:30.965Z,-0.10
2023-01-19T09:15:58.100Z,0.30
2023-01-19T09:18:25.335Z,0.10
2023-01-19T09:20:52.456Z,0.10
2023-01-19T09:23:21.037Z,0.10
2023-01-19T09:25:48.204Z,-0.50
2023-01-19T09:28:17.693Z,-0.20
2023-01-19T09:30:45.432Z,-0.40
2023-01-19T09:33:15.939Z,-0.10
2023-01-19T09:35:44.742Z,0.20
2023-01-19T09:38:12.659Z,0.40
2023-01-19T09:41:04.711Z,-0.10
2023-01-19T09:43:42.829Z,0.40
2023-01-19T09:46:21.801Z,0.90
2023-01-19T09:48:56.637Z,0.70
2023-01-19T09:51:29.831Z,1.10
2023-01-19T09:54:47.084Z,0.90
2023-01-19T09:57:15.046Z,0.60
2023-01-19T09:59:47.803Z,0.80
2023-01-19T10:02:40.163Z,0.80
2023-01-19T10:05:50.981Z,1.00
2023-01-19T10:08:35.385Z,0.70
2023-01-19T10:11:03.023Z,0.50
2023-01-19T10:14:03.963Z,0.70
2023-01-19T10:16:55.876Z,1.30
2023-01-19T10:19:46.551Z,0.90
2023-01-19T10:22:25.688Z,1.00
2023-01-19T10:24:59.189Z,1.20
2023-01-19T10:27:31.369Z,1.20
2023-01-19T10:29:59.200Z,0.70
2023-01-19T10:32:31.003Z,1.30
2023-01-19T10:34:59.998Z,1.50
2023-01-19T10:37:37.917Z,0.60
2023-01-19T10:40:37.287Z,0.70
2023-01-19T10:43:38.016Z,0.90
2023-01-19T10:46:42.674Z,0.50
2023-01-19T10:49:35.543Z,0.40
2023-01-19T10:52:05.394Z,0.70
2023-01-19T10:54:34.728Z,0.90
2023-01-19T10:57:04.410Z,0.90
2023-01-19T10:59:38.273Z,0.90
2023-01-19T11:02:36.462Z,0.90
2023-01-19T11:05:25.315Z,1.20
2023-01-19T11:07:52.671Z,1.20
2023-01-19T11:10:25.639Z,1.40
2023-01-19T11:13:12.901Z,1.80
2023-01-19T11:15:52.219Z,1.60
2023-01-19T11:18:29.423Z,1.70
2023-01-19T11:21:02.270Z,1.60
2023-01-19T11:24:10.797Z,2.30
2023-01-19T11:26:50.110Z,2.20
2023-01-19T11:29:23.995Z,1.90
2023-01-19T11:31:52.513Z,2.20
2023-01-19T11:34:37.570Z,2.10
2023-01-19T11:37:23.753Z,2.20
2023-01-19T11:39:57.310Z,1.90
2023-01-19T11:42:25.530Z,2.00
2023-01-19T11:45:19.360Z,3.00
2023-01-19T11:47:50.419Z,2.80
2023-01-19T11:50:44.840Z,2.80
2023-01-19T11:53:34.132Z,2.80
2023-01-19T11:56:15.353Z,3.20
2023-01-19T11:58:48.142Z,3.20
2023-01-19T12:01:34.292Z,3.50
2023-01-19T12:04:10.402Z,2.90
2023-01-19T12:06:45.610Z,3.40
2023-01-19T12:09:29.157Z,3.60
2023-01-19T12:12:45.958Z,3.90
2023-01-19T12:15:41.993Z,3.40
2023-01-19T12:18:26.100Z,2.40
2023-01-19T12:20:55.490Z,2.20
2023-01-19T12:23:53.688Z,2.20
2023-01-19T12:26:46.614Z,2.10
2023-01-19T12:29:19.911Z,2.00
2023-01-19T12:32:20.372Z,2.10
2023-01-19T12:34:49.530Z,1.90
2023-01-19T12:37:48.959Z,1.60
2023-01-19T12:40:29.103Z,1.80
2023-01-19T12:43:03.199Z,1.80
2023-01-19T12:45:39.928Z,2.20
2023-01-19T12:48:24.632Z,2.20
2023-01-19T12:50:51.847Z,1.90
2023-01-19T12:53:21.148Z,1.80
2023-01-19T12:56:00.159Z,2.20
2023-01-19T12:58:27.692Z,2.20
2023-01-19T13:01:16.787Z,2.20
2023-01-19T13:04:33.088Z,2.30
2023-01-19T13:07:10.536Z,2.10
2023-01-19T13:09:39.293Z,2.00
2023-01-19T13:12:21.529Z,2.10
2023-01-19T13:14:50.818Z,2.10
2023-01-19T13:17:27.157Z,2.00
2023-01-19T13:20:03.115Z,2.20
2023-01-19T13:23:12.808Z,2.00
2023-01-19T13:25:41.383Z,2.40
2023-01-19T13:28:10.137Z,2.60
2023-01-19T13:30:48.908Z,2.80
2023-01-19T13:33:21.644Z,2.40
2023-01-19T13:35:57.341Z,2.50
2023-01-19T13:38:26.119Z,2.40
2023-01-19T13:40:55.124Z,2.50
2023-01-19T13:43:32.628Z,2.70
2023-01-19T13:46:00.708Z,2.60
2023-01-19T13:48:28.325Z,2.60
2023-01-19T13:51:07.366Z,2.40
2023-01-19T13:53:35.572Z,2.50
2023-01-19T13:56:35.004Z,2.20
2023-01-19T13:59:10.660Z,2.20
2023-01-19T14:01:40.037Z,2.10
2023-01-19T14:04:24.545Z,2.00
2023-01-19T14:06:55.719Z,1.80
2023-01-19T14:09:22.992Z,2.10
2023-01-19T14:12:16.440Z,2.20
2023-01-19T14:14:46.840Z,2.10
2023-01-19T14:17:32.612Z,2.20
2023-01-19T14:20:02.994Z,2.30
2023-01-19T14:22:45.135Z,2.40
2023-01-19T14:25:27.107Z,1.90
2023-01-19T14:28:45.306Z,2.00
2023-01-19T14:31:28.202Z,2.00
2023-01-19T14:33:58.550Z,1.90
2023-01-19T14:36:39.881Z,2.00
2023-01-19T14:39:17.459Z,1.80
2023-01-19T14:41:48.189Z,1.90
2023-01-19T14:44:26.237Z,1.80
2023-01-19T14:46:53.756Z,1.80
2023-01-19T14:49:37.284Z,1.80
2023-01-19T14:52:20.341Z,1.80
2023-01-19T14:54:48.592Z,2.00
2023-01-19T14:57:15.786Z,1.90
2023-01-19T14:59:48.368Z,1.70
2023-01-19T15:02:16.299Z,1.80
2023-01-19T15:04:43.336Z,1.70
2023-01-19T15:07:18.849Z,1.80
2023-01-19T15:09:47.231Z,1.80
2023-01-19T15:12:17.992Z,1.80
2023-01-19T15:14:45.713Z,1.70
2023-01-19T15:17:26.849Z,1.70
2023-01-19T15:19:55.296Z,1.60
2023-01-19T15:22:22.550Z,1.40
2023-01-19T15:24:50.088Z,1.40
2023-01-19T15:27:17.725Z,1.30
2023-01-19T15:29:46.200Z,1.30
2023-01-19T15:32:14.894Z,1.10
2023-01-19T15:34:42.438Z,1.10
2023-01-19T15:37:09.627Z,1.10
2023-01-19T15:39:36.746Z,1.10
2023-01-19T15:42:03.951Z,1.10
2023-01-19T15:44:31.305Z,1.10
2023-01-19T15:46:58.820Z,1.00
2023-01-19T15:49:26.343Z,1.00
2023-01-19T15:51:53.401Z,1.00
2023-01-19T15:54:20.614Z,0.90
2023-01-19T15:56:48.035Z,0.90
2023-01-19T15:59:15.182Z,0.90
2023-01-19T16:01:42.386Z,0.90
2023-01-19T16:04:11.885Z,0.80
2023-01-19T16:06:38.982Z,0.80
2023-01-19T16:09:06.323Z,0.80
2023-01-19T16:11:35.247Z,0.80
2023-01-19T16:14:02.469Z,0.90
2023-01-19T16:16:29.957Z,0.80
2023-01-19T16:18:58.181Z,0.80
2023-01-19T16:21:25.390Z,0.80
2023-01-19T16:23:52.974Z,0.60
2023-01-19T16:26:34.802Z,0.50
2023-01-19T16:29:08.647Z,0.50
2023-01-19T16:31:40.440Z,0.40
2023-01-19T16:34:07.991Z,0.40
2023-01-19T16:36:37.628Z,0.40
2023-01-19T16:39:07.769Z,0.30
2023-01-19T16:41:35.775Z,0.30
2023-01-19T16:44:03.755Z,0.20
2023-01-19T16:46:36.534Z,0.20
2023-01-19T16:49:06.456Z,0.20
2023-01-19T16:51:33.612Z,0.20
2023-01-19T16:54:00.831Z,0.10
2023-01-19T16:56:28.117Z,0.10
2023-01-19T16:58:56.687Z,0.00
2023-01-19T17:01:24.811Z,0.10
2023-01-19T17:03:52.488Z,0.10
2023-01-19T17:06:24.274Z,0.00
2023-01-19T17:08:52.938Z,0.00
2023-01-19T17:11:25.423Z,0.00
2023-01-19T17:14:00.251Z,-0.10
2023-01-19T17:16:29.071Z,-0.10
2023-01-19T17:19:01.212Z,-0.10
2023-01-19T17:21:29.041Z,-0.10
2023-01-19T17:23:57.420Z,-0.20
2023-01-19T17:26:25.943Z,-0.20
2023-01-19T17:28:57.445Z,-0.30
2023-01-19T17:31:24.564Z,-0.30
2023-01-19T17:33:51.881Z,-0.30
2023-01-19T17:36:22.658Z,-0.30
2023-01-19T17:38:50.391Z,-0.30
2023-01-19T17:41:23.358Z,-0.30
2023-01-19T17:43:51.431Z,-0.30
2023-01-19T17:46:20.990Z,-0.40
2023-01-19T17:48:59.639Z,-0.40
2023-01-19T17:51:27.769Z,-0.40
2023-01-19T17:53:55.516Z,-0.50
2023-01-19T17:56:29.674Z,-0.50
2023-01-19T17:58:58.578Z,-0.50
2023-01-19T18:01:28.830Z,-0.60
2023-01-19T18:03:56.836Z,-0.60
2023-01-19T18:06:24.066Z,-0.70
2023-01-19T18:08:51.336Z,-0.70
2023-01-19T18:11:20.467Z,-0.70
2023-01-19T18:13:48.841Z,-0.70
2023-01-19T18:16:24.629Z,-0.60
2023-01-19T18:18:53.772Z,-0.60
2023-01-19T18:21:22.264Z,-0.60
2023-01-19T18:23:51.049Z,-0.60
2023-01-19T18:26:22.459Z,-0.70
2023-01-19T18:28:50.194Z,-0.80
2023-01-19T18:31:19.223Z,-0.90
2023-01-19T18:33:48.427Z,-0.90
2023-01-19T18:36:16.317Z,-1.00
2023-01-19T18:38:44.459Z,-0.90
2023-01-19T18:41:14.304Z,-0.90
2023-01-19T18:43:41.575Z,-1.00
2023-01-19T18:46:09.249Z,-1.10
2023-01-19T18:48:37.761Z,-1.00
2023-01-19T18:51:13.453Z,-1.00
2023-01-19T18:53:40.913Z,-1.00
2023-01-19T18:56:10.657Z,-1.00
2023-01-19T18:58:38.873Z,-1.20
2023-01-19T19:01:21.858Z,-1.20
2023-01-19T19:03:49.302Z,-1.20
2023-01-19T19:06:19.118Z,-1.30
2023-01-19T19:08:47.261Z,-1.40
2023-01-19T19:11:14.383Z,-1.40
2023-01-19T19:13:41.737Z,-1.30
2023-01-19T19:16:10.615Z,-1.30
2023-01-19T19:18:38.962Z,-1.30
2023-01-19T19:21:11.896Z,-1.30
2023-01-19T19:23:39.223Z,-1.40
2023-01-19T19:26:08.793Z,-1.30
2023-01-19T19:28:37.308Z,-1.30
2023-01-19T19:31:13.730Z,-1.30
2023-01-19T19:33:41.018Z,-1.20
2023-01-19T19:36:09.583Z,-1.20
2023-01-19T19:38:37.051Z,-1.30
2023-01-19T19:41:08.392Z,-1.20
2023-01-19T19:43:36.229Z,-1.20
2023-01-19T19:46:11.815Z,-1.30
2023-01-19T19:48:39.721Z,-1.40
2023-01-19T19:51:18.352Z,-1.50
2023-01-19T19:53:47.486Z,-1.50
2023-01-19T19:56:16.078Z,-1.60
2023-01-19T19:58:43.436Z,-1.50
2023-01-19T20:01:13.448Z,-1.50
2023-01-19T20:03:40.670Z,-1.60
2023-01-19T20:06:10.689Z,-1.50
2023-01-19T20:08:38.065Z,-1.60
2023-01-19T20:11:26.407Z,-1.60
2023-01-19T20:13:54.068Z,-1.50
2023-01-19T20:16:23.329Z,-1.50
2023-01-19T20:18:54.140Z,-1.50
2023-01-19T20:21:30.030Z,-1.50
2023-01-19T20:24:00.527Z,-1.60
2023-01-19T20:26:30.478Z,-1.60
2023-01-19T20:29:00.449Z,-1.60
2023-01-19T20:31:30.898Z,-1.70
2023-01-19T20:34:00.387Z,-1.70
2023-01-19T20:36:29.050Z,-1.70
2023-01-19T20:38:57.114Z,-1.70
2023-01-19T20:41:26.429Z,-1.70
2023-01-19T20:43:53.949Z,-1.80
2023-01-19T20:46:21.264Z,-1.80
2023-01-19T20:48:52.978Z,-1.80
2023-01-19T20:51:20.694Z,-1.80
2023-01-19T20:53:48.125Z,-1.90
2023-01-19T20:56:15.751Z,-1.90
2023-01-19T20:58:43.067Z,-1.70
2023-01-19T21:01:16.053Z,-1.80
2023-01-19T21:03:43.899Z,-2.00
2023-01-19T21:06:12.049Z,-1.90
2023-01-19T21:08:39.547Z,-2.00
2023-01-19T21:11:07.462Z,-2.00
2023-01-19T21:13:35.532Z,-2.10
2023-01-19T21:16:02.975Z,-2.10
2023-01-19T21:18:30.421Z,-2.10
2023-01-19T21:20:57.975Z,-2.10
2023-01-19T21:23:26.592Z,-2.20
2023-01-19T21:25:57.789Z,-2.10
2023-01-19T21:28:25.774Z,-2.20
2023-01-19T21:30:54.510Z,-2.00
2023-01-19T21:33:22.496Z,-2.10
2023-01-19T21:35:55.193Z,-2.30
2023-01-19T21:38:23.385Z,-2.30
2023-01-19T21:40:50.934Z,-2.40
2023-01-19T21:43:20.136Z,-2.10
2023-01-19T21:45:48.911Z,-2.00
2023-01-19T21:48:16.939Z,-2.10
2023-01-19T21:50:44.191Z,-2.30
2023-01-19T21:53:11.655Z,-2.20
2023-01-19T21:55:42.860Z,-2.30
2023-01-19T21:58:09.968Z,-2.40
2023-01-19T22:00:37.108Z,-2.50
2023-01-19T22:03:04.955Z,-2.60
2023-01-19T22:05:37.136Z,-2.50
2023-01-19T22:08:06.477Z,-2.30
2023-01-19T22:10:37.327Z,-2.40
2023-01-19T22:13:06.774Z,-2.40
2023-01-19T22:15:34.070Z,-2.60
2023-01-19T22:18:01.226Z,-2.60
2023-01-19T22:20:28.635Z,-2.60
2023-01-19T22:22:56.877Z,-2.60
2023-01-19T22:25:27.778Z,-2.60
2023-01-19T22:27:56.023Z,-2.60
2023-01-19T22:30:23.330Z,-2.70
2023-01-19T22:32:50.575Z,-2.60
2023-01-19T22:35:17.643Z,-2.70
2023-01-19T22:37:44.788Z,-2.70
2023-01-19T22:40:12.468Z,-2.60
2023-01-19T22:42:39.706Z,-2.50
2023-01-19T22:45:07.724Z,-2.50
2023-01-19T22:47:34.832Z,-2.70
2023-01-19T22:50:02.096Z,-2.80
2023-01-19T22:52:29.223Z,-2.70
2023-01-19T22:54:58.266Z,-2.70
2023-01-19T22:57:25.651Z,-2.70
2023-01-19T22:59:52.717Z,-2.70
2023-01-19T23:02:20.933Z,-2.70
2023-01-19T23:04:48.300Z,-2.50
2023-01-19T23:07:15.433Z,-2.60
2023-01-19T23:09:42.493Z,-2.70
2023-01-19T23:12:09.658Z,-2.90
2023-01-19T23:14:36.732Z,-2.90
2023-01-19T23:17:03.966Z,-2.80
2023-01-19T23:19:31.135Z,-2.80
2023-01-19T23:21:58.279Z,-3.00
2023-01-19T23:24:25.488Z,-3.00
2023-01-19T23:26:52.644Z,-2.90
2023-01-19T23:29:19.957Z,-3.00
2023-01-19T23:31:49.096Z,-2.80
2023-01-19T23:34:17.468Z,-3.00
2023-01-19T23:36:44.944Z,-2.80
2023-01-19T23:39:17.669Z,-2.70
2023-01-19T23:41:45.108Z,-2.80
2023-01-19T23:44:12.701Z,-2.90
2023-01-19T23:46:39.884Z,-3.00
2023-01-19T23:49:07.062Z,-3.10
2023-01-19T23:51:34.668Z,-3.10
2023-01-19T23:54:01.816Z,-3.10
2023-01-19T23:56:31.830Z,-3.10
2023-01-19T23:59:04.749Z,-3.10
